BOX530 EDDP-WSSS
Flight info
| Callsign | BOX530 |
|---|---|
| Flight time | N/A |
| Altitude | 31000 |
| Route | DRN2E DRN Z21 OMELO DCT EVIKU DCT LITKU DCT NARKA DCT ELROM DCT MOBRA DCT DENAK DCT DINRO DCT UDROS UM859 KARDE UN644 ROLIN N644 ODILI DCT BARAD M747 SUBUT/N0488F330 M747 SULEL N449 DUKAN B449 RANAH L750 ZB G202 RK P628 IBANI L510 GURVI T1 ODUMI/N0497F350 T1 BBS L759 PUT B579 VPL Y503 RINBA Y507 MAKNA Y511 TOPOR A464 ARAMA LELIB3B |
| Aircraft | B77L/H-SDE2E3GHIJ4J5M1P2RWXYZ/LB1D1 |
Departure
| Time | N/A |
|---|---|
| Airport | Leipzig/Halle Airport (EDDP) |
Arrival
| Time | 2026-05-07 14:12 |
|---|---|
| Airport | Singapore Changi Airport (WSSS) |
| Time | Latitude | Longitude | Altitude | Speed | Heading |
|---|---|---|---|---|---|
| 2026-05-07 13:23 | 4.81471 | 100.76119 | 36840 ft | 486 kts | 153° |
| 2026-05-07 13:23 | 4.75345 | 100.78999 | 36836 ft | 486 kts | 153° |
| 2026-05-07 13:24 | 4.71894 | 100.80621 | 36844 ft | 485 kts | 153° |
| 2026-05-07 13:24 | 4.65826 | 100.83474 | 36844 ft | 486 kts | 153° |
| 2026-05-07 13:25 | 4.59710 | 100.86348 | 36848 ft | 486 kts | 153° |
| 2026-05-07 13:25 | 4.53576 | 100.89231 | 36848 ft | 486 kts | 153° |
| 2026-05-07 13:26 | 4.47490 | 100.92090 | 36850 ft | 486 kts | 153° |
| 2026-05-07 13:26 | 4.41382 | 100.94959 | 36853 ft | 486 kts | 153° |
| 2026-05-07 13:27 | 4.35249 | 100.97839 | 36848 ft | 486 kts | 153° |
| 2026-05-07 13:27 | 4.29124 | 101.00715 | 36846 ft | 486 kts | 153° |
| 2026-05-07 13:28 | 4.22992 | 101.03594 | 36841 ft | 486 kts | 153° |
| 2026-05-07 13:28 | 4.16907 | 101.06450 | 36841 ft | 486 kts | 153° |
| 2026-05-07 13:29 | 4.10780 | 101.09325 | 36840 ft | 487 kts | 153° |
| 2026-05-07 13:29 | 4.04643 | 101.12205 | 36837 ft | 487 kts | 153° |
| 2026-05-07 13:30 | 3.98515 | 101.15080 | 36839 ft | 487 kts | 153° |
| 2026-05-07 13:30 | 3.92375 | 101.17960 | 36839 ft | 487 kts | 153° |
| 2026-05-07 13:31 | 3.86276 | 101.20820 | 36839 ft | 488 kts | 153° |
| 2026-05-07 13:31 | 3.80132 | 101.23701 | 36838 ft | 488 kts | 153° |
| 2026-05-07 13:32 | 3.73978 | 101.26586 | 36839 ft | 488 kts | 153° |
| 2026-05-07 13:32 | 3.67827 | 101.29470 | 36838 ft | 489 kts | 153° |
| 2026-05-07 13:33 | 3.61713 | 101.32335 | 36840 ft | 489 kts | 153° |
| 2026-05-07 13:33 | 3.55543 | 101.35226 | 36840 ft | 489 kts | 153° |
| 2026-05-07 13:34 | 3.46302 | 101.39556 | 36837 ft | 489 kts | 153° |
| 2026-05-07 13:35 | 3.40137 | 101.42444 | 36840 ft | 489 kts | 153° |
| 2026-05-07 13:35 | 3.34007 | 101.45315 | 36848 ft | 489 kts | 153° |
| 2026-05-07 13:36 | 3.27843 | 101.48202 | 36852 ft | 489 kts | 153° |
| 2026-05-07 13:36 | 3.21679 | 101.51089 | 36857 ft | 489 kts | 153° |
| 2026-05-07 13:37 | 3.15552 | 101.53957 | 36858 ft | 489 kts | 153° |
| 2026-05-07 13:37 | 3.09389 | 101.56842 | 36856 ft | 489 kts | 153° |
| 2026-05-07 13:38 | 3.03239 | 101.59721 | 36857 ft | 488 kts | 153° |
| 2026-05-07 13:38 | 2.97090 | 101.62599 | 36850 ft | 488 kts | 153° |
| 2026-05-07 13:39 | 2.94009 | 101.64041 | 36830 ft | 488 kts | 153° |
| 2026-05-07 13:39 | 2.87861 | 101.66918 | 36831 ft | 488 kts | 153° |
| 2026-05-07 13:40 | 2.81704 | 101.69799 | 36829 ft | 488 kts | 153° |
| 2026-05-07 13:40 | 2.75564 | 101.72671 | 36833 ft | 488 kts | 153° |
| 2026-05-07 13:41 | 2.69422 | 101.75545 | 36831 ft | 488 kts | 153° |
| 2026-05-07 13:41 | 2.63310 | 101.78404 | 36827 ft | 488 kts | 154° |
| 2026-05-07 13:42 | 2.57207 | 101.81347 | 36827 ft | 486 kts | 148° |
| 2026-05-07 13:42 | 2.51908 | 101.85470 | 36838 ft | 483 kts | 134° |
| 2026-05-07 13:43 | 2.47668 | 101.90680 | 36834 ft | 482 kts | 126° |
| 2026-05-07 13:43 | 2.44374 | 101.95171 | 36828 ft | 482 kts | 125° |
| 2026-05-07 13:44 | 2.39734 | 102.01452 | 36834 ft | 483 kts | 126° |
| 2026-05-07 13:44 | 2.35703 | 102.06827 | 36832 ft | 483 kts | 126° |
| 2026-05-07 13:45 | 2.32350 | 102.11279 | 36832 ft | 483 kts | 126° |
| 2026-05-07 13:45 | 2.28306 | 102.16648 | 36830 ft | 483 kts | 126° |
| 2026-05-07 13:46 | 2.24264 | 102.22017 | 36830 ft | 483 kts | 126° |
| 2026-05-07 13:46 | 2.20226 | 102.27384 | 36830 ft | 484 kts | 126° |
| 2026-05-07 13:47 | 2.16209 | 102.32721 | 36831 ft | 484 kts | 126° |
| 2026-05-07 13:47 | 2.12164 | 102.38094 | 36834 ft | 484 kts | 126° |
| 2026-05-07 13:48 | 2.08107 | 102.43484 | 36550 ft | 489 kts | 126° |
| 2026-05-07 13:48 | 2.06052 | 102.46214 | 35906 ft | 494 kts | 126° |
| 2026-05-07 13:48 | 2.03321 | 102.49842 | 34884 ft | 493 kts | 126° |
| 2026-05-07 13:48 | 2.01922 | 102.51700 | 34326 ft | 494 kts | 126° |
| 2026-05-07 13:49 | 1.99851 | 102.54449 | 33389 ft | 496 kts | 126° |
| 2026-05-07 13:49 | 1.97773 | 102.57211 | 32420 ft | 498 kts | 126° |
| 2026-05-07 13:49 | 1.95719 | 102.59938 | 31483 ft | 499 kts | 126° |
| 2026-05-07 13:49 | 1.93626 | 102.62720 | 30504 ft | 502 kts | 126° |
| 2026-05-07 13:50 | 1.91536 | 102.65497 | 29797 ft | 498 kts | 126° |
| 2026-05-07 13:50 | 1.89459 | 102.68256 | 29004 ft | 494 kts | 126° |
| 2026-05-07 13:50 | 1.87407 | 102.70984 | 28302 ft | 489 kts | 126° |
| 2026-05-07 13:50 | 1.85370 | 102.73690 | 27635 ft | 484 kts | 126° |
| 2026-05-07 13:51 | 1.83360 | 102.76361 | 26987 ft | 479 kts | 126° |
| 2026-05-07 13:51 | 1.81366 | 102.79011 | 26352 ft | 474 kts | 126° |
| 2026-05-07 13:51 | 1.79405 | 102.81617 | 25732 ft | 470 kts | 126° |
| 2026-05-07 13:51 | 1.77461 | 102.84201 | 25085 ft | 466 kts | 126° |
| 2026-05-07 13:52 | 1.75523 | 102.86774 | 24486 ft | 463 kts | 126° |
| 2026-05-07 13:52 | 1.73666 | 102.89363 | 24145 ft | 452 kts | 122° |
| 2026-05-07 13:52 | 1.72072 | 102.92049 | 23490 ft | 450 kts | 117° |
| 2026-05-07 13:52 | 1.70618 | 102.94808 | 22793 ft | 447 kts | 116° |
| 2026-05-07 13:53 | 1.69188 | 102.97549 | 22252 ft | 441 kts | 116° |
| 2026-05-07 13:53 | 1.67798 | 103.00198 | 21751 ft | 435 kts | 116° |
| 2026-05-07 13:53 | 1.66368 | 103.02895 | 21250 ft | 429 kts | 116° |
| 2026-05-07 13:53 | 1.64980 | 103.05495 | 20775 ft | 423 kts | 117° |
| 2026-05-07 13:54 | 1.64581 | 103.06242 | 20634 ft | 422 kts | 117° |
| 2026-05-07 13:54 | 1.63752 | 103.07790 | 20359 ft | 419 kts | 117° |
| 2026-05-07 13:54 | 1.62384 | 103.10345 | 19891 ft | 414 kts | 117° |
| 2026-05-07 13:54 | 1.61034 | 103.12867 | 19418 ft | 411 kts | 117° |
| 2026-05-07 13:55 | 1.59686 | 103.15390 | 18956 ft | 411 kts | 117° |
| 2026-05-07 13:55 | 1.58337 | 103.17917 | 18482 ft | 412 kts | 117° |
| 2026-05-07 13:55 | 1.56990 | 103.20441 | 18004 ft | 411 kts | 117° |
| 2026-05-07 13:55 | 1.55648 | 103.22955 | 17482 ft | 409 kts | 117° |
| 2026-05-07 13:56 | 1.54312 | 103.25459 | 17017 ft | 406 kts | 117° |
| 2026-05-07 13:56 | 1.52990 | 103.27935 | 16553 ft | 403 kts | 117° |
| 2026-05-07 13:56 | 1.51678 | 103.30395 | 16093 ft | 400 kts | 117° |
| 2026-05-07 13:56 | 1.50390 | 103.32807 | 15661 ft | 398 kts | 117° |
| 2026-05-07 13:57 | 1.49091 | 103.35241 | 15198 ft | 395 kts | 117° |
| 2026-05-07 13:57 | 1.47808 | 103.37645 | 14773 ft | 393 kts | 117° |
| 2026-05-07 13:57 | 1.46590 | 103.40072 | 14322 ft | 385 kts | 109° |
| 2026-05-07 13:57 | 1.46039 | 103.42664 | 13894 ft | 382 kts | 92° |
| 2026-05-07 13:58 | 1.46240 | 103.45292 | 13461 ft | 378 kts | 82° |
| 2026-05-07 13:58 | 1.46633 | 103.47893 | 12990 ft | 378 kts | 81° |
| 2026-05-07 13:58 | 1.47031 | 103.50482 | 12558 ft | 376 kts | 81° |
| 2026-05-07 13:58 | 1.47413 | 103.53020 | 12182 ft | 371 kts | 82° |
| 2026-05-07 13:59 | 1.47783 | 103.55545 | 11829 ft | 364 kts | 82° |
| 2026-05-07 13:59 | 1.48138 | 103.58025 | 11432 ft | 358 kts | 82° |
| 2026-05-07 13:59 | 1.48483 | 103.60465 | 11039 ft | 352 kts | 82° |
| 2026-05-07 13:59 | 1.48817 | 103.62846 | 10671 ft | 347 kts | 82° |
| 2026-05-07 14:00 | 1.49153 | 103.65244 | 10264 ft | 343 kts | 82° |
| 2026-05-07 14:00 | 1.49480 | 103.67580 | 9885 ft | 338 kts | 82° |
| 2026-05-07 14:00 | 1.49805 | 103.69900 | 9472 ft | 335 kts | 82° |
| 2026-05-07 14:00 | 1.50101 | 103.72183 | 9117 ft | 329 kts | 84° |
| 2026-05-07 14:01 | 1.50283 | 103.74433 | 8905 ft | 319 kts | 86° |
| 2026-05-07 14:01 | 1.50435 | 103.76586 | 8822 ft | 305 kts | 86° |
| 2026-05-07 14:01 | 1.50588 | 103.78627 | 8724 ft | 291 kts | 86° |
| 2026-05-07 14:01 | 1.50742 | 103.80601 | 8630 ft | 278 kts | 85° |
| 2026-05-07 14:02 | 1.50932 | 103.82470 | 8485 ft | 262 kts | 77° |
| 2026-05-07 14:02 | 1.51670 | 103.84072 | 8077 ft | 253 kts | 57° |
| 2026-05-07 14:02 | 1.52640 | 103.85525 | 7592 ft | 249 kts | 57° |
| 2026-05-07 14:02 | 1.53592 | 103.86969 | 7041 ft | 248 kts | 57° |
| 2026-05-07 14:03 | 1.54537 | 103.88408 | 6500 ft | 247 kts | 57° |
| 2026-05-07 14:03 | 1.55474 | 103.89838 | 6006 ft | 248 kts | 57° |
| 2026-05-07 14:03 | 1.56420 | 103.91285 | 5685 ft | 246 kts | 57° |
| 2026-05-07 14:03 | 1.57346 | 103.92703 | 5370 ft | 241 kts | 57° |
| 2026-05-07 14:04 | 1.58242 | 103.94063 | 5108 ft | 236 kts | 57° |
| 2026-05-07 14:04 | 1.59133 | 103.95410 | 4852 ft | 230 kts | 57° |
| 2026-05-07 14:04 | 1.60018 | 103.96720 | 4604 ft | 224 kts | 53° |
| 2026-05-07 14:04 | 1.60982 | 103.97914 | 4396 ft | 217 kts | 50° |
| 2026-05-07 14:05 | 1.61928 | 103.99033 | 4267 ft | 209 kts | 50° |
| 2026-05-07 14:05 | 1.62782 | 104.00174 | 4152 ft | 213 kts | 68° |
| 2026-05-07 14:05 | 1.62984 | 104.01680 | 4021 ft | 215 kts | 103° |
| 2026-05-07 14:05 | 1.62555 | 104.03111 | 3926 ft | 218 kts | 109° |
| 2026-05-07 14:06 | 1.62055 | 104.04557 | 3733 ft | 220 kts | 110° |
| 2026-05-07 14:06 | 1.61551 | 104.05990 | 3488 ft | 214 kts | 113° |
| 2026-05-07 14:06 | 1.60724 | 104.07118 | 3288 ft | 203 kts | 147° |
| 2026-05-07 14:06 | 1.59431 | 104.07485 | 3104 ft | 199 kts | 185° |
| 2026-05-07 14:07 | 1.58078 | 104.07192 | 3016 ft | 200 kts | 195° |
| 2026-05-07 14:07 | 1.56743 | 104.06829 | 2876 ft | 202 kts | 195° |
| 2026-05-07 14:07 | 1.55391 | 104.06390 | 2719 ft | 201 kts | 200° |
| 2026-05-07 14:07 | 1.54095 | 104.05878 | 2570 ft | 199 kts | 202° |
| 2026-05-07 14:08 | 1.52828 | 104.05347 | 2462 ft | 198 kts | 202° |
| 2026-05-07 14:08 | 1.51570 | 104.04813 | 2429 ft | 192 kts | 202° |
| 2026-05-07 14:08 | 1.50356 | 104.04298 | 2346 ft | 188 kts | 202° |
| 2026-05-07 14:08 | 1.49164 | 104.03791 | 2364 ft | 185 kts | 202° |
| 2026-05-07 14:09 | 1.48907 | 104.03682 | 2387 ft | 185 kts | 202° |
| 2026-05-07 14:09 | 1.47938 | 104.03271 | 2150 ft | 194 kts | 202° |
| 2026-05-07 14:09 | 1.46724 | 104.02756 | 1937 ft | 182 kts | 202° |
| 2026-05-07 14:09 | 1.45598 | 104.02278 | 1689 ft | 168 kts | 202° |
| 2026-05-07 14:10 | 1.44542 | 104.01830 | 1494 ft | 164 kts | 202° |
| 2026-05-07 14:10 | 1.43524 | 104.01398 | 1267 ft | 153 kts | 202° |
| 2026-05-07 14:10 | 1.42572 | 104.00996 | 1033 ft | 146 kts | 202° |
| 2026-05-07 14:10 | 1.41653 | 104.00595 | 878 ft | 143 kts | 203° |
| 2026-05-07 14:11 | 1.40753 | 104.00209 | 686 ft | 142 kts | 202° |
| 2026-05-07 14:11 | 1.39835 | 103.99830 | 525 ft | 145 kts | 201° |
| 2026-05-07 14:11 | 1.38901 | 103.99433 | 371 ft | 143 kts | 202° |
| 2026-05-07 14:11 | 1.37986 | 103.99048 | 164 ft | 144 kts | 202° |
| 2026-05-07 14:12 | 1.37061 | 103.98659 | 36 ft | 140 kts | 202° |
| 2026-05-07 14:12 | 1.36300 | 103.98338 | 35 ft | 96 kts | 202° |
| 2026-05-07 14:12 | 1.35845 | 103.98147 | 35 ft | 44 kts | 200° |
| 2026-05-07 14:12 | 1.35688 | 103.98114 | 35 ft | 15 kts | 185° |
| 2026-05-07 14:13 | 1.35590 | 103.98116 | 35 ft | 15 kts | 173° |
| 2026-05-07 14:13 | 1.35534 | 103.98189 | 35 ft | 15 kts | 72° |
| 2026-05-07 14:13 | 1.35619 | 103.98246 | 35 ft | 15 kts | 23° |
| 2026-05-07 14:13 | 1.35714 | 103.98286 | 35 ft | 15 kts | 23° |
| 2026-05-07 14:14 | 1.35810 | 103.98326 | 35 ft | 15 kts | 22° |
| 2026-05-07 14:14 | 1.35907 | 103.98367 | 35 ft | 15 kts | 23° |
| 2026-05-07 14:14 | 1.36003 | 103.98407 | 35 ft | 15 kts | 22° |
| 2026-05-07 14:14 | 1.36098 | 103.98447 | 35 ft | 15 kts | 23° |
| 2026-05-07 14:15 | 1.36195 | 103.98488 | 35 ft | 15 kts | 23° |
| 2026-05-07 14:15 | 1.36290 | 103.98529 | 35 ft | 15 kts | 23° |
| 2026-05-07 14:15 | 1.36387 | 103.98569 | 35 ft | 15 kts | 23° |
| 2026-05-07 14:15 | 1.36482 | 103.98610 | 35 ft | 15 kts | 23° |
| 2026-05-07 14:16 | 1.36577 | 103.98649 | 35 ft | 15 kts | 22° |
| 2026-05-07 14:16 | 1.36674 | 103.98690 | 35 ft | 15 kts | 22° |
| 2026-05-07 14:16 | 1.36771 | 103.98730 | 35 ft | 15 kts | 22° |
| 2026-05-07 14:16 | 1.36867 | 103.98770 | 35 ft | 15 kts | 23° |
| 2026-05-07 14:17 | 1.36963 | 103.98811 | 35 ft | 15 kts | 23° |
| 2026-05-07 14:17 | 1.37059 | 103.98851 | 35 ft | 15 kts | 23° |
| 2026-05-07 14:17 | 1.37106 | 103.98883 | 35 ft | 7 kts | 72° |
| 2026-05-07 14:17 | 1.37097 | 103.98928 | 35 ft | 7 kts | 113° |
| 2026-05-07 14:18 | 1.37062 | 103.99009 | 35 ft | 18 kts | 113° |
| 2026-05-07 14:18 | 1.37012 | 103.99125 | 35 ft | 18 kts | 113° |
| 2026-05-07 14:18 | 1.36962 | 103.99241 | 35 ft | 18 kts | 113° |
| 2026-05-07 14:18 | 1.36913 | 103.99358 | 35 ft | 18 kts | 113° |
| 2026-05-07 14:19 | 1.36863 | 103.99474 | 35 ft | 18 kts | 113° |
| 2026-05-07 14:19 | 1.36813 | 103.99590 | 35 ft | 17 kts | 113° |
| 2026-05-07 14:19 | 1.36803 | 103.99647 | 35 ft | 7 kts | 59° |
| 2026-05-07 14:19 | 1.36847 | 103.99673 | 35 ft | 7 kts | 24° |
| 2026-05-07 14:20 | 1.36906 | 103.99699 | 35 ft | 12 kts | 23° |
| 2026-05-07 14:20 | 1.36984 | 103.99732 | 35 ft | 12 kts | 23° |
| 2026-05-07 14:20 | 1.37063 | 103.99765 | 35 ft | 12 kts | 22° |
| 2026-05-07 14:20 | 1.37135 | 103.99795 | 33 ft | 7 kts | 22° |
| 2026-05-07 14:21 | 1.37172 | 103.99772 | 35 ft | 5 kts | 297° |
| 2026-05-07 14:21 | 1.37183 | 103.99744 | 35 ft | 4 kts | 292° |
| 2026-05-07 14:21 | 1.37191 | 103.99726 | 35 ft | 1 kts | 292° |
| 2026-05-07 14:21 | 1.37191 | 103.99725 | 35 ft | 0 kts | 292° |